createdAt,value
2023-04-24T00:02:48.345Z,12.20
2023-04-24T00:08:50.473Z,12.30
2023-04-24T00:14:52.561Z,12.30
2023-04-24T00:20:54.460Z,12.30
2023-04-24T00:26:56.395Z,12.40
2023-04-24T00:32:59.058Z,12.30
2023-04-24T00:39:00.991Z,12.30
2023-04-24T00:45:04.275Z,12.30
2023-04-24T00:51:06.295Z,12.20
2023-04-24T00:57:08.396Z,12.20
2023-04-24T01:03:12.137Z,12.10
2023-04-24T01:09:15.606Z,12.10
2023-04-24T01:15:17.545Z,12.00
2023-04-24T01:21:22.132Z,11.90
2023-04-24T01:27:24.043Z,11.80
2023-04-24T01:33:26.411Z,11.70
2023-04-24T01:39:29.581Z,11.60
2023-04-24T01:45:31.602Z,11.60
2023-04-24T01:51:33.567Z,11.50
2023-04-24T01:57:36.214Z,11.40
2023-04-24T02:03:38.214Z,11.40
2023-04-24T02:09:40.392Z,11.40
2023-04-24T02:15:42.464Z,11.30
2023-04-24T02:21:44.343Z,11.20
2023-04-24T02:27:46.238Z,11.00
2023-04-24T02:33:48.418Z,10.90
2023-04-24T02:39:50.400Z,10.70
2023-04-24T02:45:52.342Z,10.50
2023-04-24T02:51:54.260Z,10.10
2023-04-24T02:57:56.178Z,9.80
2023-04-24T03:03:58.189Z,9.80
2023-04-24T03:10:00.604Z,9.70
2023-04-24T03:16:02.895Z,9.90
2023-04-24T03:22:04.946Z,10.00
2023-04-24T03:28:06.854Z,10.00
2023-04-24T03:34:08.742Z,10.00
2023-04-24T03:40:10.923Z,10.00
2023-04-24T03:46:12.870Z,10.10
2023-04-24T03:52:14.788Z,10.20
2023-04-24T03:58:17.080Z,10.20
2023-04-24T04:04:19.045Z,10.30
2023-04-24T04:10:21.191Z,10.40
2023-04-24T04:16:23.561Z,10.50
2023-04-24T04:22:25.553Z,10.60
2023-04-24T04:28:27.502Z,10.80
2023-04-24T04:34:30.728Z,11.00
2023-04-24T04:40:32.802Z,11.00
2023-04-24T04:46:35.158Z,11.10
2023-04-24T04:52:37.153Z,11.20
2023-04-24T04:58:39.070Z,11.20
2023-04-24T05:04:41.216Z,11.40
2023-04-24T05:10:43.221Z,11.40
2023-04-24T05:16:45.337Z,11.50
2023-04-24T05:22:47.217Z,11.50
2023-04-24T05:28:49.177Z,11.60
2023-04-24T05:34:51.173Z,11.70
2023-04-24T05:40:53.106Z,11.90
2023-04-24T05:46:56.596Z,12.00
2023-04-24T05:53:03.040Z,12.30
2023-04-24T05:59:05.079Z,12.40
2023-04-24T06:05:07.493Z,12.40
2023-04-24T06:11:09.425Z,12.40
2023-04-24T06:17:11.344Z,12.40
2023-04-24T06:23:13.280Z,12.50
2023-04-24T06:29:15.224Z,12.70
2023-04-24T06:35:17.255Z,12.90
2023-04-24T06:41:19.434Z,13.00
2023-04-24T06:47:21.364Z,13.10
2023-04-24T06:53:23.704Z,11.50
2023-04-24T06:59:26.121Z,10.70
2023-04-24T07:05:29.221Z,10.60
2023-04-24T07:11:31.419Z,10.90
2023-04-24T07:17:33.434Z,11.20
2023-04-24T07:23:35.392Z,11.60
2023-04-24T07:29:37.345Z,11.90
2023-04-24T07:35:39.438Z,11.80
2023-04-24T07:41:41.456Z,12.70
2023-04-24T07:47:46.558Z,12.90
2023-04-24T07:53:48.590Z,13.30
2023-04-24T07:59:50.518Z,13.40
2023-04-24T08:05:52.551Z,13.50
2023-04-24T08:11:54.895Z,13.20
2023-04-24T08:17:58.943Z,13.00
2023-04-24T08:24:01.494Z,13.50
2023-04-24T08:30:05.253Z,13.80
2023-04-24T08:36:08.360Z,12.80
2023-04-24T08:42:12.405Z,12.60
2023-04-24T08:48:27.268Z,12.70
2023-04-24T08:54:34.861Z,12.70
2023-04-24T09:00:38.805Z,13.20
2023-04-24T09:06:41.462Z,13.90
2023-04-24T09:12:45.074Z,13.40
2023-04-24T09:18:47.100Z,12.80
2023-04-24T09:24:49.347Z,12.50
2023-04-24T09:31:23.051Z,13.00
2023-04-24T09:37:31.450Z,13.30
2023-04-24T09:43:34.310Z,13.00
2023-04-24T09:49:38.224Z,12.80
2023-04-24T09:55:45.787Z,12.60
2023-04-24T10:01:50.304Z,12.40
2023-04-24T10:07:52.742Z,12.20
2023-04-24T10:13:56.467Z,12.10
2023-04-24T10:20:01.047Z,12.30
2023-04-24T10:26:03.938Z,12.60
2023-04-24T10:32:08.436Z,12.70
2023-04-24T10:38:14.935Z,13.10
2023-04-24T10:44:17.682Z,13.40
2023-04-24T10:50:19.813Z,13.50
2023-04-24T10:56:23.144Z,13.60
2023-04-24T11:02:41.502Z,13.40
2023-04-24T11:08:49.179Z,13.50
2023-04-24T11:15:00.485Z,13.90
2023-04-24T11:21:17.925Z,13.90
2023-04-24T11:27:22.376Z,13.60
2023-04-24T11:33:24.331Z,13.30
2023-04-24T11:39:26.319Z,13.90
2023-04-24T11:45:32.079Z,14.20
2023-04-24T11:51:47.841Z,14.20
2023-04-24T11:58:01.049Z,13.50
2023-04-24T12:04:03.254Z,12.70
2023-04-24T12:10:07.011Z,12.10
2023-04-24T12:16:09.003Z,11.90
2023-04-24T12:22:11.003Z,12.60
2023-04-24T12:28:14.391Z,14.60
2023-04-24T12:34:21.614Z,13.70
2023-04-24T12:40:26.758Z,12.00
2023-04-24T12:46:28.679Z,10.40
2023-04-24T12:52:31.619Z,9.90
2023-04-24T12:58:33.504Z,9.90
2023-04-24T13:04:35.412Z,9.90
2023-04-24T13:10:37.380Z,9.80
2023-04-24T13:16:39.287Z,9.90
2023-04-24T13:22:41.217Z,10.00
2023-04-24T13:28:43.216Z,10.20
2023-04-24T13:34:45.129Z,10.40
2023-04-24T13:40:47.023Z,10.50
2023-04-24T13:46:52.768Z,10.10
2023-04-24T13:52:55.219Z,9.60
2023-04-24T13:58:57.672Z,9.40
2023-04-24T14:04:59.698Z,9.40
2023-04-24T14:11:04.035Z,9.50
2023-04-24T14:17:06.782Z,9.40
2023-04-24T14:23:08.748Z,9.50
2023-04-24T14:29:14.765Z,9.40
2023-04-24T14:35:17.388Z,9.30
2023-04-24T14:41:19.376Z,9.30
2023-04-24T14:47:22.737Z,9.30
2023-04-24T14:53:24.884Z,9.40
2023-04-24T14:59:26.837Z,9.50
2023-04-24T15:05:29.101Z,9.90
2023-04-24T15:11:31.176Z,10.00
2023-04-24T15:17:33.161Z,9.80
2023-04-24T15:23:35.075Z,9.80
2023-04-24T15:29:37.106Z,9.60
2023-04-24T15:35:39.081Z,9.80
2023-04-24T15:41:40.976Z,9.80
2023-04-24T15:47:42.949Z,9.90
2023-04-24T15:53:47.243Z,9.90
2023-04-24T15:59:49.581Z,9.80
2023-04-24T16:05:53.463Z,9.80
2023-04-24T16:11:55.596Z,10.50
2023-04-24T16:17:58.445Z,11.00
2023-04-24T16:24:00.457Z,11.20
2023-04-24T16:30:03.069Z,10.50
2023-04-24T16:36:07.356Z,10.30
2023-04-24T16:42:09.525Z,10.10
2023-04-24T16:48:11.504Z,9.90
2023-04-24T16:54:13.400Z,9.80
2023-04-24T17:00:16.416Z,9.80
2023-04-24T17:06:18.402Z,9.80
2023-04-24T17:12:20.386Z,9.80
2023-04-24T17:18:22.334Z,9.70
2023-04-24T17:24:24.559Z,9.60
2023-04-24T17:30:26.761Z,9.60
2023-04-24T17:36:28.698Z,9.70
2023-04-24T17:42:30.701Z,9.70
2023-04-24T17:48:32.642Z,9.60
2023-04-24T17:54:34.834Z,9.60
2023-04-24T18:00:37.359Z,9.50
2023-04-24T18:06:39.779Z,9.70
2023-04-24T18:12:41.753Z,10.20
2023-04-24T18:18:43.700Z,9.90
2023-04-24T18:24:45.679Z,9.70
2023-04-24T18:30:47.872Z,9.50
2023-04-24T18:36:49.773Z,9.20
2023-04-24T18:42:51.732Z,9.10
2023-04-24T18:48:53.680Z,9.10
2023-04-24T18:54:55.688Z,9.00
2023-04-24T19:00:57.912Z,9.00
2023-04-24T19:06:59.832Z,9.00
2023-04-24T19:13:01.915Z,8.90
2023-04-24T19:19:05.538Z,9.00
2023-04-24T19:25:08.696Z,9.00
2023-04-24T19:31:10.718Z,9.00
2023-04-24T19:37:13.319Z,8.90
2023-04-24T19:43:15.214Z,8.90
2023-04-24T19:49:17.266Z,8.80
2023-04-24T19:55:19.327Z,8.80
2023-04-24T20:01:21.487Z,8.70
2023-04-24T20:07:23.429Z,8.60
2023-04-24T20:13:28.144Z,8.50
2023-04-24T20:19:30.261Z,8.40
2023-04-24T20:25:32.214Z,8.40
2023-04-24T20:31:34.707Z,8.50
2023-04-24T20:37:36.867Z,8.50
2023-04-24T20:43:39.605Z,8.40
2023-04-24T20:49:41.640Z,8.40
2023-04-24T20:55:43.642Z,8.50
2023-04-24T21:01:45.632Z,8.50
2023-04-24T21:07:47.718Z,8.60
2023-04-24T21:13:49.841Z,8.50
2023-04-24T21:19:52.016Z,8.50
2023-04-24T21:25:53.925Z,8.30
2023-04-24T21:31:56.026Z,8.40
2023-04-24T21:37:57.932Z,8.30
2023-04-24T21:43:59.913Z,8.30
2023-04-24T21:50:01.967Z,8.30
2023-04-24T21:56:04.129Z,8.10
2023-04-24T22:02:06.273Z,8.10
2023-04-24T22:08:08.338Z,7.90
2023-04-24T22:14:10.997Z,7.80
2023-04-24T22:20:13.833Z,7.80
2023-04-24T22:26:15.804Z,7.60
2023-04-24T22:32:17.764Z,7.60
2023-04-24T22:38:19.675Z,7.50
2023-04-24T22:44:22.120Z,7.50
2023-04-24T22:50:25.459Z,7.40
2023-04-24T22:56:27.395Z,7.30
2023-04-24T23:02:29.441Z,7.40
2023-04-24T23:08:31.452Z,7.30
2023-04-24T23:14:34.309Z,7.20
2023-04-24T23:20:36.332Z,7.20
2023-04-24T23:26:38.378Z,7.10
2023-04-24T23:32:40.282Z,6.90
2023-04-24T23:38:49.637Z,6.80
2023-04-24T23:44:52.585Z,6.70
2023-04-24T23:50:54.576Z,6.50
2023-04-24T23:56:56.487Z,6.50
